Terminal Aerodrome Forecast
Issued by NWS

Home | Current Version | Previous Version | Text Only | Print | Product List | Glossary On
Versions: 1 2 3 4 5 6 7 8 9 10 11 12 13 14 15 16 17 18 19 20
180
FTAK31 PAJN 240051 AAA
TAFAKT
TAF AMD
PAKT 240051Z 2401/2424 VRB05KT P6SM VCSH FEW005 BKN015 OVC030
      TEMPO 2401/2405 2SM -SHRA BR SCT005 OVC010
     FM241300 13005KT P6SM OVC030
     FM241700 13008KT P6SM VCSH BKN040
      AMD LTD TO CLD VIS AND WIND 2406/2415=

USA.gov is the U.S. government's official web portal to all federal, state and local government web resources and services.